createdAt,value
2022-10-30T00:00:32.220Z,50.07
2022-10-30T00:01:31.267Z,45.27
2022-10-30T00:02:31.299Z,45.18
2022-10-30T00:03:31.199Z,50.69
2022-10-30T00:04:31.218Z,40.33
2022-10-30T00:05:31.189Z,46.62
2022-10-30T00:06:31.158Z,49.75
2022-10-30T00:07:32.167Z,50.82
2022-10-30T00:08:31.151Z,40.84
2022-10-30T00:09:31.168Z,48.04
2022-10-30T00:10:31.136Z,38.20
2022-10-30T00:11:31.129Z,41.77
2022-10-30T00:12:31.117Z,49.23
2022-10-30T00:13:31.112Z,58.32
2022-10-30T00:14:31.140Z,46.16
2022-10-30T00:15:31.098Z,41.36
2022-10-30T00:16:31.090Z,45.67
2022-10-30T00:17:31.082Z,47.25
2022-10-30T00:18:31.077Z,46.64
2022-10-30T00:19:31.087Z,49.53
2022-10-30T00:20:31.060Z,47.39
2022-10-30T00:21:31.046Z,44.63
2022-10-30T00:22:31.040Z,51.18
2022-10-30T00:23:31.031Z,52.27
2022-10-30T00:24:31.052Z,51.06
2022-10-30T00:25:31.019Z,44.69
2022-10-30T00:26:31.009Z,54.60
2022-10-30T00:27:31.005Z,41.44
2022-10-30T00:28:30.999Z,41.29
2022-10-30T00:29:31.016Z,45.47
2022-10-30T00:30:30.978Z,38.40
2022-10-30T00:31:30.971Z,48.81
2022-10-30T00:32:30.963Z,50.55
2022-10-30T00:33:30.943Z,48.69
2022-10-30T00:34:31.970Z,44.92
2022-10-30T00:35:30.971Z,43.78
2022-10-30T00:36:30.931Z,56.08
2022-10-30T00:37:30.919Z,45.52
2022-10-30T00:38:30.915Z,53.91
2022-10-30T00:39:30.935Z,46.06
2022-10-30T00:40:30.899Z,47.24
2022-10-30T00:41:30.892Z,42.95
2022-10-30T00:42:30.886Z,41.20
2022-10-30T00:43:30.880Z,40.76
2022-10-30T00:44:30.903Z,37.71
2022-10-30T00:45:30.861Z,50.00
2022-10-30T00:46:30.853Z,47.80
2022-10-30T00:47:30.847Z,45.69
2022-10-30T00:48:30.837Z,50.10
2022-10-30T00:49:30.867Z,45.90
2022-10-30T00:50:30.832Z,46.17
2022-10-30T00:51:30.815Z,38.06
2022-10-30T00:52:30.809Z,42.19
2022-10-30T00:53:30.803Z,35.86
2022-10-30T00:54:30.794Z,45.65
2022-10-30T00:55:30.808Z,40.50
2022-10-30T00:56:30.775Z,43.62
2022-10-30T00:57:30.770Z,40.39
2022-10-30T00:58:30.765Z,52.56
2022-10-30T00:59:30.751Z,50.47
2022-10-30T01:00:30.774Z,42.81
2022-10-30T01:01:30.849Z,37.93
2022-10-30T01:02:30.848Z,36.78
2022-10-30T01:03:30.727Z,43.64
2022-10-30T01:04:30.739Z,45.26
2022-10-30T01:05:30.712Z,46.56
2022-10-30T01:06:30.703Z,45.63
2022-10-30T01:07:30.690Z,62.17
2022-10-30T01:08:30.731Z,45.96
2022-10-30T01:09:30.699Z,38.69
2022-10-30T01:10:30.673Z,50.77
2022-10-30T01:11:30.656Z,41.50
2022-10-30T01:12:30.652Z,36.56
2022-10-30T01:13:30.646Z,48.20
2022-10-30T01:14:30.658Z,52.75
2022-10-30T01:15:30.631Z,43.22
2022-10-30T01:16:31.624Z,50.06
2022-10-30T01:17:30.615Z,46.92
2022-10-30T01:18:30.610Z,49.32
2022-10-30T01:19:30.622Z,47.82
2022-10-30T01:20:30.591Z,51.70
2022-10-30T01:21:30.587Z,47.66
2022-10-30T01:22:30.578Z,45.93
2022-10-30T01:23:30.573Z,50.10
2022-10-30T01:24:30.593Z,48.99
2022-10-30T01:25:30.551Z,44.54
2022-10-30T01:26:30.548Z,44.45
2022-10-30T01:27:30.537Z,45.87
2022-10-30T01:28:30.528Z,39.69
2022-10-30T01:29:30.521Z,36.97
2022-10-30T01:30:30.538Z,42.97
2022-10-30T01:31:30.509Z,46.67
2022-10-30T01:32:30.497Z,42.61
2022-10-30T01:33:30.492Z,49.71
2022-10-30T01:34:30.543Z,53.21
2022-10-30T01:35:30.478Z,44.95
2022-10-30T01:36:30.470Z,45.84
2022-10-30T01:37:30.461Z,48.61
2022-10-30T01:38:30.450Z,41.17
2022-10-30T01:39:31.479Z,47.70
2022-10-30T01:40:30.444Z,40.56
2022-10-30T01:41:30.434Z,43.32
2022-10-30T01:42:30.428Z,54.25
2022-10-30T01:43:30.423Z,48.23
2022-10-30T01:44:30.444Z,47.71
2022-10-30T01:45:30.410Z,47.95
2022-10-30T01:46:30.394Z,49.04
2022-10-30T01:47:31.391Z,43.96
2022-10-30T01:48:30.381Z,48.91
2022-10-30T01:49:30.416Z,36.90
2022-10-30T01:50:30.366Z,37.87
2022-10-30T01:51:30.361Z,38.05
2022-10-30T01:52:30.360Z,48.25
2022-10-30T01:53:30.347Z,52.59
2022-10-30T01:54:30.344Z,59.14
2022-10-30T01:55:30.354Z,45.51
2022-10-30T01:56:30.323Z,51.15
2022-10-30T01:57:30.313Z,40.79
2022-10-30T01:58:30.310Z,50.25
2022-10-30T01:59:30.306Z,55.48
2022-10-30T02:00:30.321Z,48.72
2022-10-30T02:01:30.416Z,38.54
2022-10-30T02:02:30.364Z,39.18
2022-10-30T02:03:30.278Z,37.09
2022-10-30T02:04:30.265Z,40.01
2022-10-30T02:05:30.281Z,46.98
2022-10-30T02:06:30.246Z,37.91
2022-10-30T02:07:30.242Z,44.50
2022-10-30T02:08:30.234Z,36.73
2022-10-30T02:09:30.230Z,38.35
2022-10-30T02:10:30.239Z,36.92
2022-10-30T02:11:30.207Z,44.47
2022-10-30T02:12:30.202Z,49.73
2022-10-30T02:13:30.190Z,51.24
2022-10-30T02:14:30.185Z,39.07
2022-10-30T02:15:30.200Z,41.13
2022-10-30T02:16:30.173Z,37.98
2022-10-30T02:17:30.163Z,36.92
2022-10-30T02:18:30.385Z,36.85
2022-10-30T02:19:30.151Z,44.96
2022-10-30T02:20:30.162Z,36.79
2022-10-30T02:21:30.129Z,35.75
2022-10-30T02:22:30.138Z,36.40
2022-10-30T02:23:30.115Z,38.68
2022-10-30T02:24:30.109Z,45.88
2022-10-30T02:25:30.134Z,35.90
2022-10-30T02:26:30.092Z,37.33
2022-10-30T02:27:30.081Z,54.43
2022-10-30T02:28:30.078Z,48.57
2022-10-30T02:29:30.067Z,37.39
2022-10-30T02:30:30.087Z,36.02
2022-10-30T02:31:30.048Z,35.86
2022-10-30T02:32:31.045Z,44.40
2022-10-30T02:33:30.037Z,49.29
2022-10-30T02:34:30.031Z,48.97
2022-10-30T02:35:30.039Z,55.98
2022-10-30T02:36:30.011Z,40.49
2022-10-30T02:37:30.007Z,39.01
2022-10-30T02:38:29.984Z,39.60
2022-10-30T02:39:30.992Z,44.80
2022-10-30T02:40:30.006Z,39.29
2022-10-30T02:41:29.976Z,36.31
2022-10-30T02:42:29.966Z,49.25
2022-10-30T02:43:29.958Z,47.46
2022-10-30T02:44:29.949Z,36.81
2022-10-30T02:45:29.966Z,36.72
2022-10-30T02:46:29.932Z,40.39
2022-10-30T02:47:29.925Z,43.35
2022-10-30T02:48:29.916Z,37.85
2022-10-30T02:49:29.907Z,45.19
2022-10-30T02:50:29.926Z,57.59
2022-10-30T02:51:29.892Z,42.95
2022-10-30T02:52:29.881Z,50.23
2022-10-30T02:53:29.880Z,49.36
2022-10-30T02:54:29.867Z,48.99
2022-10-30T02:55:29.887Z,41.04
2022-10-30T02:56:29.854Z,44.03
2022-10-30T02:57:29.841Z,45.73
2022-10-30T02:58:29.824Z,37.56
2022-10-30T02:59:30.829Z,35.74
2022-10-30T03:00:29.848Z,42.06
2022-10-30T03:01:30.004Z,42.89
2022-10-30T03:02:29.805Z,57.39
2022-10-30T03:03:29.796Z,38.44
2022-10-30T03:04:29.790Z,37.53
2022-10-30T03:05:29.810Z,36.25
2022-10-30T03:06:29.778Z,35.63
2022-10-30T03:07:29.774Z,37.10
2022-10-30T03:08:29.758Z,40.71
2022-10-30T03:09:29.755Z,56.29
2022-10-30T03:10:29.773Z,39.51
2022-10-30T03:11:29.735Z,37.06
2022-10-30T03:12:29.730Z,39.25
2022-10-30T03:13:29.723Z,43.67
2022-10-30T03:14:29.719Z,58.88
2022-10-30T03:15:29.740Z,40.39
2022-10-30T03:16:29.705Z,38.41
2022-10-30T03:17:29.839Z,47.71
2022-10-30T03:18:29.685Z,44.29
2022-10-30T03:19:29.677Z,61.42
2022-10-30T03:20:29.698Z,39.71
2022-10-30T03:21:29.656Z,43.25
2022-10-30T03:22:29.653Z,38.15
2022-10-30T03:23:29.642Z,35.98
2022-10-30T03:24:29.633Z,45.94
2022-10-30T03:25:29.657Z,39.17
2022-10-30T03:26:29.613Z,37.27
2022-10-30T03:27:29.611Z,37.18
2022-10-30T03:28:29.604Z,36.62
2022-10-30T03:29:29.592Z,40.44
2022-10-30T03:30:29.613Z,45.96
2022-10-30T03:31:29.583Z,38.19
2022-10-30T03:32:29.575Z,37.43
2022-10-30T03:33:29.564Z,42.30
2022-10-30T03:34:29.557Z,42.52
2022-10-30T03:35:29.579Z,40.29
2022-10-30T03:36:29.537Z,42.18
2022-10-30T03:37:29.534Z,43.84
2022-10-30T03:38:29.531Z,48.53
2022-10-30T03:39:29.525Z,55.55
2022-10-30T03:40:29.517Z,42.99
2022-10-30T03:41:29.530Z,44.02
2022-10-30T03:42:29.500Z,46.19
2022-10-30T03:43:29.496Z,45.32
2022-10-30T03:44:29.481Z,45.51
2022-10-30T03:45:29.478Z,38.81
2022-10-30T03:46:29.491Z,36.84
2022-10-30T03:47:30.458Z,39.81
2022-10-30T03:48:29.458Z,49.58
2022-10-30T03:49:29.448Z,49.18
2022-10-30T03:50:29.432Z,50.37
2022-10-30T03:51:29.454Z,43.50
2022-10-30T03:52:29.423Z,51.00
2022-10-30T03:53:29.416Z,46.99
2022-10-30T03:54:29.412Z,51.02
2022-10-30T03:55:29.400Z,51.42
2022-10-30T03:56:29.417Z,46.03
2022-10-30T03:57:29.384Z,47.04
2022-10-30T03:58:29.378Z,47.91
2022-10-30T03:59:29.369Z,49.00
2022-10-30T04:00:29.349Z,42.68
2022-10-30T04:01:30.502Z,42.14
2022-10-30T04:02:29.352Z,51.91
2022-10-30T04:03:29.345Z,59.77
2022-10-30T04:04:29.326Z,46.17
2022-10-30T04:05:30.321Z,41.69
2022-10-30T04:06:29.340Z,45.08
2022-10-30T04:07:29.302Z,49.15
2022-10-30T04:08:29.298Z,42.32
2022-10-30T04:09:29.290Z,54.68
2022-10-30T04:10:29.284Z,48.53
2022-10-30T04:11:29.343Z,61.14
2022-10-30T04:12:29.260Z,47.02
2022-10-30T04:13:29.260Z,45.05
2022-10-30T04:14:29.250Z,45.20
2022-10-30T04:15:29.242Z,46.31
2022-10-30T04:16:29.259Z,56.63
2022-10-30T04:17:29.221Z,48.80
2022-10-30T04:18:29.217Z,47.68
2022-10-30T04:19:29.210Z,57.60
2022-10-30T04:20:29.193Z,47.11
2022-10-30T04:21:29.216Z,45.15
2022-10-30T04:22:29.178Z,49.20
2022-10-30T04:23:29.169Z,39.42
2022-10-30T04:24:29.169Z,42.58
2022-10-30T04:25:29.166Z,44.59
2022-10-30T04:26:29.178Z,43.08
2022-10-30T04:27:29.129Z,53.48
2022-10-30T04:28:30.132Z,57.76
2022-10-30T04:29:29.122Z,51.16
2022-10-30T04:30:29.114Z,53.69
2022-10-30T04:31:29.104Z,55.07
2022-10-30T04:32:29.127Z,50.46
2022-10-30T04:33:29.090Z,62.40
2022-10-30T04:34:29.082Z,45.41
2022-10-30T04:35:29.077Z,47.20
2022-10-30T04:36:29.064Z,47.48
2022-10-30T04:37:29.082Z,44.58
2022-10-30T04:38:29.052Z,46.98
2022-10-30T04:39:29.042Z,55.56
2022-10-30T04:40:29.037Z,49.80
2022-10-30T04:41:29.024Z,39.52
2022-10-30T04:42:29.044Z,51.25
2022-10-30T04:43:29.008Z,41.80
2022-10-30T04:44:29.004Z,48.24
2022-10-30T04:45:28.993Z,50.17
2022-10-30T04:46:28.983Z,50.77
2022-10-30T04:47:29.029Z,48.60
2022-10-30T04:48:28.970Z,42.28
2022-10-30T04:49:28.965Z,51.77
2022-10-30T04:50:28.952Z,51.33
2022-10-30T04:51:28.941Z,46.60
2022-10-30T04:52:28.963Z,46.62
2022-10-30T04:53:28.923Z,46.00
2022-10-30T04:54:28.921Z,47.22
2022-10-30T04:55:28.911Z,46.79
2022-10-30T04:56:28.906Z,51.20
2022-10-30T04:57:28.921Z,42.53
2022-10-30T04:58:28.890Z,62.09
2022-10-30T04:59:28.877Z,42.95
2022-10-30T05:00:28.874Z,49.65
2022-10-30T05:01:28.969Z,45.13
2022-10-30T05:02:29.205Z,45.09
2022-10-30T05:03:28.852Z,50.55
2022-10-30T05:04:28.844Z,51.91
2022-10-30T05:05:28.836Z,52.30
2022-10-30T05:06:28.825Z,49.07
2022-10-30T05:07:28.848Z,47.85
2022-10-30T05:08:28.808Z,42.43
2022-10-30T05:09:28.801Z,49.52
2022-10-30T05:10:28.794Z,38.39
2022-10-30T05:11:28.786Z,46.82
2022-10-30T05:12:28.805Z,53.10
2022-10-30T05:13:28.770Z,42.63
2022-10-30T05:14:28.762Z,36.64
2022-10-30T05:15:28.756Z,49.78
2022-10-30T05:16:28.746Z,41.42
2022-10-30T05:18:28.735Z,44.65
2022-10-30T05:19:28.722Z,36.78
2022-10-30T05:20:28.710Z,36.69
2022-10-30T05:21:28.701Z,46.08
2022-10-30T05:22:29.727Z,44.67
2022-10-30T05:23:28.692Z,55.07
2022-10-30T05:24:28.683Z,47.76
2022-10-30T05:25:28.678Z,53.00
2022-10-30T05:26:28.671Z,41.88
2022-10-30T05:27:28.689Z,45.47
2022-10-30T05:28:28.644Z,50.20
2022-10-30T05:29:29.647Z,42.69
2022-10-30T05:30:28.637Z,44.87
2022-10-30T05:31:28.653Z,44.59
2022-10-30T05:32:28.654Z,45.79
2022-10-30T05:33:28.622Z,42.00
2022-10-30T05:34:28.611Z,49.77
2022-10-30T05:35:28.601Z,45.50
2022-10-30T05:36:28.594Z,48.84
2022-10-30T05:37:28.613Z,59.52
2022-10-30T05:38:28.574Z,46.42
2022-10-30T05:39:28.588Z,60.61
2022-10-30T05:40:28.561Z,46.61
2022-10-30T05:41:28.555Z,39.13
2022-10-30T05:42:28.572Z,54.47
2022-10-30T05:43:28.536Z,51.08
2022-10-30T05:44:40.803Z,49.61
2022-10-30T05:45:30.523Z,45.60
2022-10-30T05:46:28.513Z,37.73
2022-10-30T05:47:28.560Z,47.04
2022-10-30T05:48:28.501Z,49.00
2022-10-30T05:49:28.494Z,47.10
2022-10-30T05:50:28.479Z,50.39
2022-10-30T05:51:28.477Z,44.77
2022-10-30T05:52:28.495Z,55.50
2022-10-30T05:53:28.458Z,50.62
2022-10-30T05:54:28.452Z,46.61
2022-10-30T05:55:28.447Z,44.19
2022-10-30T05:56:28.440Z,39.28
2022-10-30T05:57:28.454Z,41.56
2022-10-30T05:58:28.421Z,42.27
2022-10-30T05:59:28.410Z,44.66
2022-10-30T06:00:28.414Z,39.39
2022-10-30T06:01:28.486Z,39.35
2022-10-30T06:02:28.450Z,40.10
2022-10-30T06:03:28.382Z,38.31
2022-10-30T06:04:28.372Z,46.52
2022-10-30T06:05:28.370Z,44.99
2022-10-30T06:06:28.356Z,40.78
2022-10-30T06:07:28.383Z,40.79
2022-10-30T06:08:28.341Z,44.64
2022-10-30T06:09:28.316Z,49.96
2022-10-30T06:10:29.321Z,44.53
2022-10-30T06:11:28.313Z,39.66
2022-10-30T06:12:28.334Z,41.09
2022-10-30T06:13:28.302Z,44.90
2022-10-30T06:14:28.294Z,49.18
2022-10-30T06:15:28.282Z,46.24
2022-10-30T06:16:28.291Z,48.75
2022-10-30T06:17:28.304Z,43.77
2022-10-30T06:18:28.263Z,39.89
2022-10-30T06:19:28.255Z,45.41
2022-10-30T06:20:28.247Z,51.10
2022-10-30T06:21:28.237Z,39.49
2022-10-30T06:22:28.259Z,46.15
2022-10-30T06:23:28.228Z,40.34
2022-10-30T06:24:28.216Z,46.81
2022-10-30T06:25:28.208Z,38.29
2022-10-30T06:26:28.199Z,39.20
2022-10-30T06:27:28.217Z,57.56
2022-10-30T06:28:28.186Z,51.16
2022-10-30T06:29:28.180Z,51.86
2022-10-30T06:30:28.167Z,53.33
2022-10-30T06:31:28.162Z,46.79
2022-10-30T06:32:28.177Z,50.78
2022-10-30T06:33:28.144Z,48.09
2022-10-30T06:34:28.138Z,47.99
2022-10-30T06:35:28.131Z,58.42
2022-10-30T06:36:28.122Z,55.89
2022-10-30T06:37:28.137Z,61.81
2022-10-30T06:38:28.104Z,43.70
2022-10-30T06:39:28.092Z,43.93
2022-10-30T06:40:28.090Z,51.60
2022-10-30T06:41:30.574Z,54.17
2022-10-30T06:42:29.095Z,44.12
2022-10-30T06:43:28.066Z,49.39
2022-10-30T06:44:28.054Z,43.62
2022-10-30T06:45:28.044Z,50.71
2022-10-30T06:46:32.439Z,49.46
2022-10-30T06:47:29.054Z,56.88
2022-10-30T06:48:28.025Z,47.61
2022-10-30T06:49:28.010Z,48.32
2022-10-30T06:50:28.005Z,50.70
2022-10-30T06:51:27.994Z,51.59
2022-10-30T06:52:28.016Z,50.76
2022-10-30T06:53:27.984Z,53.30
2022-10-30T06:54:27.976Z,47.04
2022-10-30T06:55:27.969Z,56.45
2022-10-30T06:56:27.960Z,45.75
2022-10-30T06:57:27.982Z,48.13
2022-10-30T06:58:27.953Z,47.23
2022-10-30T06:59:27.948Z,40.49
2022-10-30T07:00:27.931Z,42.43
2022-10-30T07:01:28.050Z,49.80
2022-10-30T07:02:28.013Z,54.14
2022-10-30T07:03:27.907Z,47.04
2022-10-30T07:04:27.901Z,46.92
2022-10-30T07:05:27.898Z,53.35
2022-10-30T07:06:27.890Z,55.93
2022-10-30T07:07:27.908Z,45.63
2022-10-30T07:08:27.872Z,48.38
2022-10-30T07:09:27.861Z,54.44
2022-10-30T07:10:27.854Z,48.54
2022-10-30T07:11:27.846Z,48.30
2022-10-30T07:12:27.865Z,46.92
2022-10-30T07:13:27.832Z,42.06
2022-10-30T07:14:27.824Z,48.71
2022-10-30T07:15:27.868Z,42.27
2022-10-30T07:16:27.810Z,41.96
2022-10-30T07:17:27.830Z,52.01
2022-10-30T07:18:27.801Z,51.18
2022-10-30T07:19:27.782Z,48.90
2022-10-30T07:20:27.778Z,56.26
2022-10-30T07:21:27.769Z,51.37
2022-10-30T07:22:27.802Z,55.07
2022-10-30T07:23:27.763Z,51.14
2022-10-30T07:24:27.748Z,51.46
2022-10-30T07:25:27.741Z,46.04
2022-10-30T07:26:27.731Z,49.56
2022-10-30T07:27:27.724Z,50.69
2022-10-30T07:28:27.741Z,44.97
2022-10-30T07:29:27.708Z,54.33
2022-10-30T07:30:27.825Z,60.77
2022-10-30T07:31:41.526Z,54.99
2022-10-30T07:32:29.721Z,50.83
2022-10-30T07:33:27.675Z,52.90
2022-10-30T07:34:27.662Z,51.38
2022-10-30T07:35:27.658Z,47.25
2022-10-30T07:36:27.649Z,52.55
2022-10-30T07:37:27.643Z,61.36
2022-10-30T07:38:27.659Z,54.60
2022-10-30T07:39:27.627Z,50.62
2022-10-30T07:40:27.695Z,56.34
2022-10-30T07:41:27.608Z,50.21
2022-10-30T07:42:27.599Z,49.71
2022-10-30T07:43:27.620Z,55.91
2022-10-30T07:44:27.587Z,46.97
2022-10-30T07:45:27.583Z,57.44
2022-10-30T07:46:27.571Z,53.50
2022-10-30T07:47:27.562Z,53.52
2022-10-30T07:48:27.580Z,55.26
2022-10-30T07:49:27.547Z,51.01
2022-10-30T07:50:27.647Z,48.29
2022-10-30T07:51:27.534Z,48.89
2022-10-30T07:52:27.525Z,56.62
2022-10-30T07:53:27.543Z,49.09
2022-10-30T07:54:27.509Z,53.57
2022-10-30T07:55:27.513Z,58.55
2022-10-30T07:56:27.492Z,52.68
2022-10-30T07:57:27.488Z,55.00
2022-10-30T07:58:27.501Z,59.80
2022-10-30T07:59:27.473Z,51.50
2022-10-30T08:00:27.526Z,54.46
2022-10-30T08:01:27.544Z,55.90
2022-10-30T08:02:27.586Z,53.10
2022-10-30T08:03:27.461Z,51.76
2022-10-30T08:04:27.433Z,46.09
2022-10-30T08:05:30.097Z,47.03
2022-10-30T08:06:27.599Z,56.30
2022-10-30T08:07:27.417Z,56.83
2022-10-30T08:08:27.427Z,55.43
2022-10-30T08:09:27.398Z,54.45
2022-10-30T08:10:27.501Z,55.91
2022-10-30T08:11:27.379Z,53.17
2022-10-30T08:12:27.368Z,61.83
2022-10-30T08:13:27.388Z,56.50
2022-10-30T08:14:27.353Z,55.36
2022-10-30T08:15:27.345Z,58.52
2022-10-30T08:16:27.347Z,55.19
2022-10-30T08:17:27.332Z,49.74
2022-10-30T08:18:27.353Z,58.38
2022-10-30T08:19:27.319Z,54.81
2022-10-30T08:20:27.434Z,50.48
2022-10-30T08:21:27.313Z,59.77
2022-10-30T08:22:27.295Z,52.20
2022-10-30T08:23:27.315Z,60.15
2022-10-30T08:24:27.291Z,59.25
2022-10-30T08:25:27.272Z,51.97
2022-10-30T08:26:27.264Z,55.94
2022-10-30T08:27:27.256Z,59.61
2022-10-30T08:28:31.572Z,56.63
2022-10-30T08:29:28.236Z,50.08
2022-10-30T08:30:27.290Z,56.11
2022-10-30T08:31:27.228Z,61.01
2022-10-30T08:32:27.218Z,49.38
2022-10-30T08:33:27.238Z,55.06
2022-10-30T08:34:27.201Z,54.45
2022-10-30T08:35:27.251Z,54.53
2022-10-30T08:36:27.182Z,51.60
2022-10-30T08:37:27.187Z,55.92
2022-10-30T08:38:27.191Z,57.25
2022-10-30T08:39:27.160Z,56.32
2022-10-30T08:40:27.161Z,56.39
2022-10-30T08:41:27.146Z,55.13
2022-10-30T08:42:27.148Z,59.07
2022-10-30T08:43:27.155Z,58.02
2022-10-30T08:44:27.128Z,56.67
2022-10-30T08:45:30.914Z,55.53
2022-10-30T08:46:27.110Z,57.97
2022-10-30T08:47:27.104Z,56.11
2022-10-30T08:48:27.130Z,51.49
2022-10-30T08:49:27.086Z,58.81
2022-10-30T08:50:27.085Z,55.02
2022-10-30T08:51:27.073Z,50.88
2022-10-30T08:52:27.063Z,58.09
2022-10-30T08:53:27.082Z,43.31
2022-10-30T08:54:27.048Z,52.25
2022-10-30T08:55:27.043Z,53.18
2022-10-30T08:56:27.036Z,56.19
2022-10-30T08:57:27.025Z,52.63
2022-10-30T08:58:27.026Z,55.06
2022-10-30T08:59:28.036Z,57.05
2022-10-30T09:00:26.999Z,52.67
2022-10-30T09:01:27.208Z,55.57
2022-10-30T09:02:27.108Z,59.15
2022-10-30T09:03:26.978Z,54.84
2022-10-30T09:04:26.997Z,53.47
2022-10-30T09:05:26.966Z,54.23
2022-10-30T09:06:26.957Z,54.65
2022-10-30T09:07:26.952Z,57.85
2022-10-30T09:08:26.945Z,54.61
2022-10-30T09:09:26.956Z,54.77
2022-10-30T09:10:26.927Z,53.50
2022-10-30T09:11:26.919Z,56.22
2022-10-30T09:12:26.911Z,53.59
2022-10-30T09:13:26.931Z,53.07
2022-10-30T09:14:26.899Z,58.53
2022-10-30T09:15:26.892Z,60.12
2022-10-30T09:16:26.882Z,57.43
2022-10-30T09:17:26.874Z,55.03
2022-10-30T09:18:26.895Z,58.32
2022-10-30T09:19:26.861Z,51.83
2022-10-30T09:20:26.959Z,56.63
2022-10-30T09:21:26.847Z,57.58
2022-10-30T09:22:26.834Z,54.63
2022-10-30T09:23:26.848Z,55.11
2022-10-30T09:24:27.817Z,55.60
2022-10-30T09:25:26.816Z,56.10
2022-10-30T09:26:26.808Z,56.06
2022-10-30T09:27:26.798Z,56.53
2022-10-30T09:28:26.817Z,58.39
2022-10-30T09:29:26.792Z,49.87
2022-10-30T09:30:26.772Z,54.54
2022-10-30T09:31:26.767Z,56.21
2022-10-30T09:32:26.759Z,55.83
2022-10-30T09:33:26.782Z,55.57
2022-10-30T09:35:26.768Z,54.55
2022-10-30T09:36:27.749Z,55.96
2022-10-30T09:37:26.720Z,46.49
2022-10-30T09:38:26.718Z,53.30
2022-10-30T09:39:26.732Z,51.58
2022-10-30T09:40:26.692Z,56.99
2022-10-30T09:41:26.686Z,56.87
2022-10-30T09:42:26.682Z,57.50
2022-10-30T09:43:26.671Z,63.71
2022-10-30T09:44:26.693Z,58.18
2022-10-30T09:45:29.810Z,54.13
2022-10-30T09:46:27.654Z,54.40
2022-10-30T09:47:26.645Z,55.88
2022-10-30T09:48:26.638Z,56.51
2022-10-30T09:49:26.652Z,54.00
2022-10-30T09:50:26.619Z,55.81
2022-10-30T09:51:26.612Z,54.87
2022-10-30T09:52:26.608Z,58.77
2022-10-30T09:53:26.603Z,53.94
2022-10-30T09:54:26.624Z,52.02
2022-10-30T09:55:26.583Z,55.09
2022-10-30T09:56:26.572Z,53.00
2022-10-30T09:57:26.574Z,58.14
2022-10-30T09:58:26.565Z,52.99
2022-10-30T09:59:26.586Z,58.87
2022-10-30T10:00:26.558Z,57.77
2022-10-30T10:01:26.718Z,55.64
2022-10-30T10:02:26.646Z,60.57
2022-10-30T10:03:26.528Z,56.79
2022-10-30T10:04:27.205Z,53.73
2022-10-30T10:05:26.515Z,56.22
2022-10-30T10:06:26.508Z,55.57
2022-10-30T10:07:26.510Z,61.12
2022-10-30T10:08:26.491Z,54.75
2022-10-30T10:09:26.510Z,55.32
2022-10-30T10:10:26.471Z,59.65
2022-10-30T10:11:26.466Z,56.70
2022-10-30T10:12:26.459Z,58.10
2022-10-30T10:13:26.454Z,58.41
2022-10-30T10:14:26.472Z,54.76
2022-10-30T10:15:26.440Z,57.61
2022-10-30T10:16:26.434Z,57.00
2022-10-30T10:17:26.427Z,52.25
2022-10-30T10:18:26.492Z,59.07
2022-10-30T10:19:26.435Z,58.45
2022-10-30T10:20:26.409Z,55.28
2022-10-30T10:21:26.395Z,54.57
2022-10-30T10:22:26.393Z,62.02
2022-10-30T10:23:26.399Z,52.11
2022-10-30T10:24:26.408Z,57.31
2022-10-30T10:25:26.368Z,51.40
2022-10-30T10:26:26.368Z,59.44
2022-10-30T10:27:26.361Z,60.31
2022-10-30T10:28:26.367Z,54.12
2022-10-30T10:29:26.371Z,55.57
2022-10-30T10:30:26.406Z,54.80
2022-10-30T10:31:26.321Z,57.23
2022-10-30T10:32:26.315Z,53.22
2022-10-30T10:33:26.320Z,57.61
2022-10-30T10:34:26.308Z,60.39
2022-10-30T10:35:26.323Z,62.18
2022-10-30T10:36:26.287Z,54.60
2022-10-30T10:37:26.283Z,55.11
2022-10-30T10:38:26.294Z,57.62
2022-10-30T10:39:26.269Z,57.25
2022-10-30T10:40:26.285Z,56.96
2022-10-30T10:41:26.251Z,51.51
2022-10-30T10:42:26.242Z,59.78
2022-10-30T10:43:26.237Z,55.75
2022-10-30T10:44:26.229Z,56.85
2022-10-30T10:45:26.246Z,59.69
2022-10-30T10:46:26.213Z,58.35
2022-10-30T10:47:26.212Z,55.18
2022-10-30T10:48:26.197Z,58.01
2022-10-30T10:49:26.205Z,57.99
2022-10-30T10:50:26.212Z,55.62
2022-10-30T10:51:26.178Z,60.47
2022-10-30T10:52:26.169Z,56.40
2022-10-30T10:53:26.161Z,58.31
2022-10-30T10:54:26.157Z,59.15
2022-10-30T10:55:26.169Z,52.99
2022-10-30T10:56:26.133Z,53.40
2022-10-30T10:57:26.132Z,56.50
2022-10-30T10:58:26.119Z,57.85
2022-10-30T10:59:26.112Z,54.33
2022-10-30T11:00:26.133Z,56.99
2022-10-30T11:01:26.224Z,58.77
2022-10-30T11:02:26.184Z,56.92
2022-10-30T11:03:26.085Z,60.59
2022-10-30T11:04:26.083Z,49.80
2022-10-30T11:05:26.096Z,58.79
2022-10-30T11:06:26.063Z,59.74
2022-10-30T11:07:26.052Z,48.63
2022-10-30T11:08:26.044Z,58.53
2022-10-30T11:09:26.039Z,57.19
2022-10-30T11:10:26.057Z,56.54
2022-10-30T11:11:26.020Z,55.00
2022-10-30T11:12:27.568Z,55.73
2022-10-30T11:13:26.005Z,56.33
2022-10-30T11:14:25.999Z,57.62
2022-10-30T11:15:26.015Z,57.46
2022-10-30T11:16:25.985Z,52.39
2022-10-30T11:17:25.976Z,57.20
2022-10-30T11:18:25.970Z,53.30
2022-10-30T11:19:25.965Z,56.40
2022-10-30T11:20:25.978Z,56.40
2022-10-30T11:21:25.946Z,57.25
2022-10-30T11:22:25.940Z,55.72
2022-10-30T11:23:25.930Z,54.27
2022-10-30T11:24:25.922Z,53.38
2022-10-30T11:25:30.340Z,57.14
2022-10-30T11:26:26.905Z,58.46
2022-10-30T11:27:25.902Z,56.85
2022-10-30T11:28:25.894Z,59.18
2022-10-30T11:29:25.886Z,59.06
2022-10-30T11:30:25.912Z,56.22
2022-10-30T11:31:25.862Z,56.06
2022-10-30T11:32:26.864Z,54.70
2022-10-30T11:33:25.854Z,58.22
2022-10-30T11:34:25.881Z,51.25
2022-10-30T11:35:25.836Z,50.13
2022-10-30T11:36:25.854Z,57.92
2022-10-30T11:37:25.819Z,56.48
2022-10-30T11:38:25.812Z,53.79
2022-10-30T11:39:25.804Z,55.82
2022-10-30T11:40:25.801Z,51.52
2022-10-30T11:41:25.823Z,58.56
2022-10-30T11:42:25.792Z,56.44
2022-10-30T11:43:25.783Z,58.00
2022-10-30T11:44:25.771Z,56.18
2022-10-30T11:45:25.765Z,59.23
2022-10-30T11:46:25.784Z,58.95
2022-10-30T11:47:25.806Z,54.93
2022-10-30T11:48:26.050Z,52.72
2022-10-30T11:49:25.735Z,57.57
2022-10-30T11:50:25.729Z,55.42
2022-10-30T11:51:25.791Z,51.98
2022-10-30T11:52:25.707Z,54.02
2022-10-30T11:53:25.703Z,60.15
2022-10-30T11:54:25.693Z,56.84
2022-10-30T11:55:25.684Z,55.70
2022-10-30T11:56:25.703Z,57.83
2022-10-30T11:57:25.672Z,60.44
2022-10-30T11:58:25.665Z,54.49
2022-10-30T11:59:25.658Z,56.52
2022-10-30T12:00:25.647Z,59.13
2022-10-30T12:01:25.683Z,57.46
2022-10-30T12:02:25.738Z,57.34
2022-10-30T12:03:25.622Z,54.27
2022-10-30T12:04:25.625Z,59.65
2022-10-30T12:05:25.613Z,57.13
2022-10-30T12:06:25.623Z,54.97
2022-10-30T12:07:25.592Z,56.47
2022-10-30T12:08:25.591Z,51.43
2022-10-30T12:09:25.580Z,55.32
2022-10-30T12:10:25.578Z,60.63
2022-10-30T12:11:25.591Z,60.42
2022-10-30T12:12:25.557Z,58.18
2022-10-30T12:13:25.559Z,56.71
2022-10-30T12:14:25.542Z,53.11
2022-10-30T12:15:25.534Z,58.54
2022-10-30T12:16:25.552Z,53.89
2022-10-30T12:17:25.523Z,57.13
2022-10-30T12:18:25.584Z,55.92
2022-10-30T12:19:25.523Z,51.64
2022-10-30T12:20:25.503Z,55.22
2022-10-30T12:21:25.526Z,58.89
2022-10-30T12:22:25.476Z,55.20
2022-10-30T12:23:25.462Z,55.57
2022-10-30T12:24:26.466Z,57.49
2022-10-30T12:25:25.458Z,57.73
2022-10-30T12:26:25.476Z,55.46
2022-10-30T12:27:25.440Z,56.22
2022-10-30T12:28:25.434Z,56.47
2022-10-30T12:29:36.520Z,56.96
2022-10-30T12:30:27.415Z,54.75
2022-10-30T12:31:25.433Z,57.70
2022-10-30T12:32:25.401Z,56.09
2022-10-30T12:33:25.392Z,52.26
2022-10-30T12:34:25.387Z,55.10
2022-10-30T12:35:25.378Z,59.09
2022-10-30T12:36:25.397Z,56.05
2022-10-30T12:37:25.367Z,57.56
2022-10-30T12:38:25.359Z,56.22
2022-10-30T12:39:25.351Z,50.20
2022-10-30T12:40:25.341Z,54.52
2022-10-30T12:41:25.352Z,55.55
2022-10-30T12:42:25.322Z,55.91
2022-10-30T12:43:25.321Z,54.12
2022-10-30T12:44:25.310Z,54.76
2022-10-30T12:45:25.304Z,55.75
2022-10-30T12:46:25.319Z,51.99
2022-10-30T12:47:25.296Z,57.22
2022-10-30T12:48:25.281Z,57.15
2022-10-30T12:49:25.272Z,56.44
2022-10-30T12:50:25.264Z,54.43
2022-10-30T12:51:25.286Z,49.98
2022-10-30T12:52:25.253Z,57.35
2022-10-30T12:53:25.244Z,57.24
2022-10-30T12:54:25.238Z,56.39